Time,TemperatureF,DewpointF,PressureIn,WindDirection,WindDirectionDegrees,WindSpeedMPH,WindSpeedGustMPH,Humidity,HourlyPrecipIn,Conditions,Clouds,dailyrainin,SoftwareType,DateUTC
2013-01-28 00:03:00,36.2,34.9,30.00,ENE,70,0.0,3.0,95,0.00,,,0.00,WUHU216DAVISVP2,2013-01-28 08:03:00,
2013-01-28 00:08:00,36.2,34.9,30.01,ENE,70,0.0,2.0,95,0.00,,,0.00,WUHU216DAVISVP2,2013-01-28 08:08:00,
2013-01-28 00:13:00,36.2,34.9,30.01,SW,220,0.0,2.0,95,0.00,,,0.00,WUHU216DAVISVP2,2013-01-28 08:13:00,
2013-01-28 00:18:00,36.2,34.9,30.01,SW,220,0.0,2.0,95,0.00,,,0.00,WUHU216DAVISVP2,2013-01-28 08:18:00,
2013-01-28 00:23:00,36.2,35.1,30.01,SW,220,0.0,0.0,96,0.00,,,0.00,WUHU216DAVISVP2,2013-01-28 08:23:00,
2013-01-28 00:28:00,36.2,35.1,30.01,SW,220,0.0,0.0,96,0.00,,,0.00,WUHU216DAVISVP2,2013-01-28 08:28:00,
2013-01-28 00:33:00,36.2,35.1,30.01,SW,220,0.0,0.0,96,0.00,,,0.00,WUHU216DAVISVP2,2013-01-28 08:33:00,
2013-01-28 00:38:00,36.2,35.1,30.01,SW,220,0.0,0.0,96,0.00,,,0.00,WUHU216DAVISVP2,2013-01-28 08:38:00,
2013-01-28 00:43:00,36.2,35.1,30.01,SSW,207,1.0,2.0,96,0.00,,,0.00,WUHU216DAVISVP2,2013-01-28 08:43:00,
2013-01-28 00:48:00,36.4,35.4,30.01,SSW,207,0.0,2.0,96,0.00,,,0.00,WUHU216DAVISVP2,2013-01-28 08:48:00,
2013-01-28 00:53:00,36.5,35.5,30.01,SSW,207,0.0,1.0,96,0.00,,,0.00,WUHU216DAVISVP2,2013-01-28 08:53:00,
2013-01-28 00:58:00,36.6,35.6,30.01,SSW,207,0.0,0.0,96,0.00,,,0.00,WUHU216DAVISVP2,2013-01-28 08:58:00,
2013-01-28 01:03:00,36.7,35.6,30.02,SSW,207,0.0,1.0,96,0.00,,,0.00,WUHU216DAVISVP2,2013-01-28 09:03:00,
2013-01-28 01:08:00,36.8,35.7,30.01,SW,232,3.0,3.0,96,0.00,,,0.00,WUHU216DAVISVP2,2013-01-28 09:08:00,
2013-01-28 01:13:00,36.9,35.8,30.02,SSW,199,1.0,3.0,96,0.00,,,0.00,WUHU216DAVISVP2,2013-01-28 09:13:00,
2013-01-28 01:18:00,37.1,36.0,30.02,SSW,205,2.0,4.0,96,0.00,,,0.00,WUHU216DAVISVP2,2013-01-28 09:18:00,
2013-01-28 01:23:00,37.2,36.1,30.02,SSW,192,0.0,4.0,96,0.00,,,0.00,WUHU216DAVISVP2,2013-01-28 09:23:00,
2013-01-28 01:28:00,37.3,36.2,30.02,SSW,192,0.0,2.0,96,0.00,,,0.00,WUHU216DAVISVP2,2013-01-28 09:28:00,
2013-01-28 01:33:00,37.3,36.0,30.02,SSW,192,0.0,1.0,95,0.00,,,0.00,WUHU216DAVISVP2,2013-01-28 09:33:00,
2013-01-28 01:38:00,37.4,36.1,30.02,SSW,192,0.0,0.0,95,0.00,,,0.00,WUHU216DAVISVP2,2013-01-28 09:38:00,
2013-01-28 01:43:00,37.5,36.2,30.02,SSW,192,0.0,0.0,95,0.00,,,0.00,WUHU216DAVISVP2,2013-01-28 09:43:00,
2013-01-28 01:48:00,37.5,36.2,30.02,SE,140,0.0,1.0,95,0.00,,,0.00,WUHU216DAVISVP2,2013-01-28 09:48:00,
2013-01-28 01:53:00,37.7,36.4,30.02,SSE,148,0.0,1.0,95,0.00,,,0.00,WUHU216DAVISVP2,2013-01-28 09:53:00,
2013-01-28 01:58:00,37.7,36.4,30.02,SSE,148,0.0,1.0,95,0.00,,,0.00,WUHU216DAVISVP2,2013-01-28 09:58:00,
2013-01-28 02:03:00,37.8,36.5,30.02,East,90,0.0,2.0,95,0.00,,,0.00,WUHU216DAVISVP2,2013-01-28 10:03:00,
2013-01-28 02:08:00,37.8,36.5,30.02,East,90,0.0,2.0,95,0.00,,,0.00,WUHU216DAVISVP2,2013-01-28 10:08:00,
2013-01-28 02:13:00,37.7,36.4,30.02,East,90,0.0,1.0,95,0.00,,,0.00,WUHU216DAVISVP2,2013-01-28 10:13:00,
2013-01-28 02:18:00,37.8,36.5,30.02,East,92,0.0,2.0,95,0.00,,,0.00,WUHU216DAVISVP2,2013-01-28 10:18:00,
2013-01-28 02:23:00,37.8,36.5,30.02,East,92,0.0,2.0,95,0.00,,,0.00,WUHU216DAVISVP2,2013-01-28 10:23:00,
2013-01-28 02:28:00,37.8,36.5,30.02,East,92,0.0,0.0,95,0.00,,,0.00,WUHU216DAVISVP2,2013-01-28 10:28:00,
2013-01-28 02:33:00,37.8,36.5,30.02,East,92,0.0,1.0,95,0.00,,,0.00,WUHU216DAVISVP2,2013-01-28 10:33:00,
2013-01-28 02:38:00,37.8,36.5,30.03,East,92,0.0,1.0,95,0.00,,,0.00,WUHU216DAVISVP2,2013-01-28 10:38:00,
2013-01-28 02:43:00,37.8,36.5,30.03,East,92,0.0,0.0,95,0.00,,,0.00,WUHU216DAVISVP2,2013-01-28 10:43:00,
2013-01-28 02:48:00,37.8,36.5,30.03,East,92,0.0,1.0,95,0.00,,,0.00,WUHU216DAVISVP2,2013-01-28 10:48:00,
2013-01-28 02:53:00,37.7,36.4,30.03,East,91,0.0,1.0,95,0.00,,,0.00,WUHU216DAVISVP2,2013-01-28 10:53:00,
2013-01-28 02:58:00,37.7,36.4,30.03,East,91,0.0,0.0,95,0.00,,,0.00,WUHU216DAVISVP2,2013-01-28 10:58:00,
2013-01-28 03:03:00,37.7,36.4,30.03,East,92,0.0,0.0,95,0.00,,,0.00,WUHU216DAVISVP2,2013-01-28 11:03:00,
2013-01-28 03:08:00,37.7,36.4,30.04,East,91,0.0,0.0,95,0.00,,,0.00,WUHU216DAVISVP2,2013-01-28 11:08:00,
2013-01-28 03:13:00,37.7,36.4,30.03,East,92,0.0,0.0,95,0.00,,,0.00,WUHU216DAVISVP2,2013-01-28 11:13:00,
2013-01-28 03:18:00,37.8,36.5,30.04,East,91,0.0,0.0,95,0.00,,,0.00,WUHU216DAVISVP2,2013-01-28 11:18:00,
2013-01-28 03:23:00,37.7,36.4,30.04,East,91,0.0,0.0,95,0.00,,,0.00,WUHU216DAVISVP2,2013-01-28 11:23:00,
2013-01-28 03:28:00,37.8,36.5,30.03,East,91,0.0,1.0,95,0.00,,,0.00,WUHU216DAVISVP2,2013-01-28 11:28:00,
2013-01-28 03:33:00,37.9,36.3,30.03,SSW,210,4.0,4.0,94,0.00,,,0.00,WUHU216DAVISVP2,2013-01-28 11:33:00,
2013-01-28 03:38:00,38.0,36.1,30.03,SW,222,0.0,5.0,93,0.00,,,0.00,WUHU216DAVISVP2,2013-01-28 11:38:00,
2013-01-28 03:43:00,38.2,36.3,30.03,SW,222,0.0,5.0,93,0.00,,,0.00,WUHU216DAVISVP2,2013-01-28 11:43:00,
2013-01-28 03:48:00,38.2,36.3,30.03,SW,222,0.0,1.0,93,0.00,,,0.00,WUHU216DAVISVP2,2013-01-28 11:48:00,
2013-01-28 03:53:00,38.2,36.0,30.04,ESE,111,1.0,1.0,92,0.00,,,0.00,WUHU216DAVISVP2,2013-01-28 11:53:00,
2013-01-28 03:58:00,38.2,36.0,30.04,ESE,111,0.0,2.0,92,0.00,,,0.00,WUHU216DAVISVP2,2013-01-28 11:58:00,
2013-01-28 04:03:00,38.2,36.0,30.04,SE,132,0.0,3.0,92,0.00,,,0.00,WUHU216DAVISVP2,2013-01-28 12:03:00,
2013-01-28 04:08:00,38.3,36.1,30.04,SE,132,0.0,3.0,92,0.00,,,0.00,WUHU216DAVISVP2,2013-01-28 12:08:00,
2013-01-28 04:13:00,38.4,36.0,30.04,SE,132,0.0,0.0,91,0.00,,,0.00,WUHU216DAVISVP2,2013-01-28 12:13:00,
2013-01-28 04:18:00,38.4,36.2,30.04,SE,132,0.0,0.0,92,0.00,,,0.00,WUHU216DAVISVP2,2013-01-28 12:18:00,
2013-01-28 04:23:00,38.3,36.1,30.04,SE,132,0.0,1.0,92,0.00,,,0.00,WUHU216DAVISVP2,2013-01-28 12:23:00,
2013-01-28 04:28:00,38.2,36.0,30.04,SE,132,0.0,1.0,92,0.00,,,0.00,WUHU216DAVISVP2,2013-01-28 12:28:00,
2013-01-28 04:33:00,38.0,35.8,30.04,SE,132,0.0,1.0,92,0.00,,,0.00,WUHU216DAVISVP2,2013-01-28 12:33:00,
2013-01-28 04:38:00,37.9,35.7,30.04,SE,131,0.0,1.0,92,0.00,,,0.00,WUHU216DAVISVP2,2013-01-28 12:38:00,
2013-01-28 04:43:00,37.9,36.0,30.04,SE,131,0.0,1.0,93,0.00,,,0.00,WUHU216DAVISVP2,2013-01-28 12:43:00,
2013-01-28 04:48:00,37.8,36.0,30.04,SE,132,0.0,1.0,93,0.00,,,0.00,WUHU216DAVISVP2,2013-01-28 12:48:00,
2013-01-28 04:53:00,37.8,36.0,30.04,SE,132,0.0,0.0,93,0.00,,,0.00,WUHU216DAVISVP2,2013-01-28 12:53:00,
2013-01-28 04:58:00,37.7,35.9,30.04,SE,131,0.0,1.0,93,0.00,,,0.00,WUHU216DAVISVP2,2013-01-28 12:58:00,
2013-01-28 05:03:00,37.6,35.8,30.04,SE,131,0.0,1.0,93,0.00,,,0.00,WUHU216DAVISVP2,2013-01-28 13:03:00,
2013-01-28 05:08:00,37.6,35.8,30.04,SSE,160,0.0,4.0,93,0.00,,,0.00,WUHU216DAVISVP2,2013-01-28 13:08:00,
2013-01-28 05:13:00,37.8,36.0,30.04,SSE,159,0.0,4.0,93,0.00,,,0.00,WUHU216DAVISVP2,2013-01-28 13:13:00,
2013-01-28 05:18:00,37.8,36.0,30.04,SSE,159,1.0,1.0,93,0.00,,,0.00,WUHU216DAVISVP2,2013-01-28 13:18:00,
2013-01-28 05:23:00,37.8,36.0,30.04,ESE,123,0.0,2.0,93,0.00,,,0.00,WUHU216DAVISVP2,2013-01-28 13:23:00,
2013-01-28 05:28:00,37.8,36.0,30.04,ESE,123,1.0,2.0,93,0.00,,,0.00,WUHU216DAVISVP2,2013-01-28 13:28:00,
2013-01-28 05:33:00,37.8,36.0,30.04,ESE,123,0.0,2.0,93,0.00,,,0.00,WUHU216DAVISVP2,2013-01-28 13:33:00,
2013-01-28 05:38:00,37.7,35.8,30.04,ESE,123,0.0,1.0,93,0.00,,,0.00,WUHU216DAVISVP2,2013-01-28 13:38:00,
2013-01-28 05:43:00,37.7,36.1,30.05,ESE,123,0.0,2.0,94,0.00,,,0.00,WUHU216DAVISVP2,2013-01-28 13:43:00,
2013-01-28 05:48:00,37.6,36.0,30.04,ESE,123,0.0,2.0,94,0.00,,,0.00,WUHU216DAVISVP2,2013-01-28 13:48:00,
2013-01-28 05:53:00,37.6,36.0,30.04,ESE,123,0.0,1.0,94,0.00,,,0.00,WUHU216DAVISVP2,2013-01-28 13:53:00,
2013-01-28 05:58:00,37.8,35.9,30.05,WNW,283,1.0,3.0,93,0.00,,,0.00,WUHU216DAVISVP2,2013-01-28 13:58:00,
2013-01-28 06:03:00,38.0,35.8,30.04,SSW,203,2.0,3.0,92,0.00,,,0.00,WUHU216DAVISVP2,2013-01-28 14:03:00,
2013-01-28 06:08:00,38.1,35.9,30.05,SW,225,0.0,3.0,92,0.00,,,0.00,WUHU216DAVISVP2,2013-01-28 14:08:00,
2013-01-28 06:13:00,38.2,35.8,30.05,SW,225,0.0,2.0,91,0.00,,,0.00,WUHU216DAVISVP2,2013-01-28 14:13:00,
2013-01-28 06:18:00,38.3,35.9,30.05,WSW,238,0.0,2.0,91,0.00,,,0.00,WUHU216DAVISVP2,2013-01-28 14:18:00,
2013-01-28 06:23:00,38.3,35.9,30.05,WSW,243,0.0,2.0,91,0.00,,,0.00,WUHU216DAVISVP2,2013-01-28 14:23:00,
2013-01-28 06:28:00,38.3,35.9,30.05,WSW,243,0.0,2.0,91,0.00,,,0.00,WUHU216DAVISVP2,2013-01-28 14:28:00,
2013-01-28 06:33:00,38.4,36.0,30.05,WSW,243,0.0,1.0,91,0.00,,,0.00,WUHU216DAVISVP2,2013-01-28 14:33:00,
2013-01-28 06:38:00,38.3,35.9,30.06,WSW,241,0.0,2.0,91,0.00,,,0.00,WUHU216DAVISVP2,2013-01-28 14:38:00,
2013-01-28 06:43:00,38.3,35.9,30.05,WSW,238,0.0,2.0,91,0.00,,,0.00,WUHU216DAVISVP2,2013-01-28 14:43:00,
2013-01-28 06:48:00,38.3,35.9,30.06,SW,217,0.0,2.0,91,0.00,,,0.00,WUHU216DAVISVP2,2013-01-28 14:48:00,
2013-01-28 06:53:00,38.4,35.7,30.06,SW,217,0.0,2.0,90,0.00,,,0.00,WUHU216DAVISVP2,2013-01-28 14:53:00,
2013-01-28 06:58:00,38.4,36.0,30.06,SW,217,0.0,0.0,91,0.00,,,0.00,WUHU216DAVISVP2,2013-01-28 14:58:00,
2013-01-28 07:03:00,38.4,36.0,30.06,SW,217,0.0,1.0,91,0.00,,,0.00,WUHU216DAVISVP2,2013-01-28 15:03:00,
2013-01-28 07:08:00,38.4,36.0,30.06,SW,217,0.0,1.0,91,0.00,,,0.00,WUHU216DAVISVP2,2013-01-28 15:08:00,
2013-01-28 07:13:00,38.3,35.9,30.06,SSW,208,5.0,5.0,91,0.00,,,0.00,WUHU216DAVISVP2,2013-01-28 15:13:00,
2013-01-28 07:18:00,38.4,36.0,30.06,WSW,241,0.0,5.0,91,0.00,,,0.00,WUHU216DAVISVP2,2013-01-28 15:18:00,
2013-01-28 07:23:00,38.4,36.0,30.06,WSW,241,0.0,5.0,91,0.00,,,0.00,WUHU216DAVISVP2,2013-01-28 15:23:00,
2013-01-28 07:28:00,38.4,36.0,30.06,WSW,241,0.0,1.0,91,0.00,,,0.00,WUHU216DAVISVP2,2013-01-28 15:28:00,
2013-01-28 07:33:00,38.4,36.0,30.07,WSW,241,1.0,1.0,91,0.00,,,0.00,WUHU216DAVISVP2,2013-01-28 15:33:00,
2013-01-28 07:38:00,38.4,36.0,30.07,NNW,331,2.0,3.0,91,0.00,,,0.00,WUHU216DAVISVP2,2013-01-28 15:38:00,
2013-01-28 07:43:00,38.5,36.1,30.07,NNW,336,1.0,3.0,91,0.00,,,0.00,WUHU216DAVISVP2,2013-01-28 15:43:00,
2013-01-28 07:48:00,38.6,36.2,30.07,SW,223,0.0,6.0,91,0.00,,,0.00,WUHU216DAVISVP2,2013-01-28 15:48:00,
2013-01-28 07:53:00,38.6,36.2,30.07,SW,223,0.0,6.0,91,0.00,,,0.00,WUHU216DAVISVP2,2013-01-28 15:53:00,
2013-01-28 07:58:00,38.6,36.2,30.07,SW,223,0.0,1.0,91,0.00,,,0.00,WUHU216DAVISVP2,2013-01-28 15:58:00,
2013-01-28 08:03:00,38.5,36.3,30.07,SW,223,0.0,1.0,92,0.00,,,0.00,WUHU216DAVISVP2,2013-01-28 16:03:00,
2013-01-28 08:08:00,38.5,36.3,30.07,SW,223,0.0,0.0,92,0.00,,,0.00,WUHU216DAVISVP2,2013-01-28 16:08:00,
2013-01-28 08:13:00,38.4,36.2,30.07,SW,223,0.0,0.0,92,0.00,,,0.00,WUHU216DAVISVP2,2013-01-28 16:13:00,
2013-01-28 08:18:00,38.4,36.2,30.07,SW,223,0.0,1.0,92,0.00,,,0.00,WUHU216DAVISVP2,2013-01-28 16:18:00,
2013-01-28 08:23:00,38.4,36.3,30.07,SW,223,0.0,1.0,92,0.00,,,0.00,WUHU216DAVISVP2,2013-01-28 16:23:00,
2013-01-28 08:28:00,38.3,36.2,30.07,ENE,74,1.0,3.0,92,0.00,,,0.00,WUHU216DAVISVP2,2013-01-28 16:28:00,
2013-01-28 08:33:00,38.3,36.4,30.07,ENE,77,2.0,3.0,93,0.00,,,0.00,WUHU216DAVISVP2,2013-01-28 16:33:00,
2013-01-28 08:38:00,38.2,36.3,30.07,East,79,0.0,2.0,93,0.00,,,0.00,WUHU216DAVISVP2,2013-01-28 16:38:00,
2013-01-28 08:43:00,38.1,36.5,30.07,East,79,0.0,2.0,94,0.00,,,0.00,WUHU216DAVISVP2,2013-01-28 16:43:00,
2013-01-28 08:48:00,38.1,36.5,30.07,East,79,0.0,1.0,94,0.00,,,0.00,WUHU216DAVISVP2,2013-01-28 16:48:00,
2013-01-28 08:53:00,38.1,36.5,30.06,East,79,0.0,1.0,94,0.00,,,0.00,WUHU216DAVISVP2,2013-01-28 16:53:00,
2013-01-28 08:58:00,38.1,36.5,30.07,East,80,0.0,2.0,94,0.01,,,0.01,WUHU216DAVISVP2,2013-01-28 16:58:00,
2013-01-28 09:03:00,38.2,36.6,30.07,East,80,0.0,2.0,94,0.01,,,0.01,WUHU216DAVISVP2,2013-01-28 17:03:00,
2013-01-28 09:08:00,38.2,36.9,30.06,East,80,0.0,1.0,95,0.01,,,0.01,WUHU216DAVISVP2,2013-01-28 17:08:00,
2013-01-28 09:13:00,38.2,36.9,30.07,East,80,0.0,1.0,95,0.01,,,0.01,WUHU216DAVISVP2,2013-01-28 17:13:00,
2013-01-28 09:18:00,38.2,36.9,30.07,NW,310,1.0,2.0,95,0.01,,,0.01,WUHU216DAVISVP2,2013-01-28 17:18:00,
2013-01-28 09:23:00,38.3,37.0,30.07,ENE,62,0.0,2.0,95,0.01,,,0.01,WUHU216DAVISVP2,2013-01-28 17:23:00,
2013-01-28 09:28:00,38.4,37.1,30.07,South,175,1.0,2.0,95,0.01,,,0.01,WUHU216DAVISVP2,2013-01-28 17:28:00,
2013-01-28 09:33:00,38.5,36.9,30.07,South,175,0.0,2.0,94,0.01,,,0.01,WUHU216DAVISVP2,2013-01-28 17:33:00,
2013-01-28 09:38:00,38.6,37.0,30.07,SSW,213,2.0,3.0,94,0.01,,,0.01,WUHU216DAVISVP2,2013-01-28 17:38:00,
2013-01-28 09:43:00,38.8,36.9,30.07,SSW,202,0.0,3.0,93,0.01,,,0.01,WUHU216DAVISVP2,2013-01-28 17:43:00,
2013-01-28 09:48:00,39.0,36.8,30.07,SSW,213,0.0,3.0,92,0.01,,,0.01,WUHU216DAVISVP2,2013-01-28 17:48:00,
2013-01-28 09:53:00,39.2,37.0,30.07,SSW,213,0.0,3.0,92,0.01,,,0.01,WUHU216DAVISVP2,2013-01-28 17:53:00,
2013-01-28 09:58:00,39.3,37.1,30.07,SSW,213,0.0,2.0,92,0.00,,,0.01,WUHU216DAVISVP2,2013-01-28 17:58:00,
2013-01-28 10:03:00,39.4,37.2,30.07,SSW,213,0.0,2.0,92,0.00,,,0.01,WUHU216DAVISVP2,2013-01-28 18:03:00,
2013-01-28 10:08:00,39.5,37.3,30.07,SSW,213,0.0,0.0,92,0.00,,,0.01,WUHU216DAVISVP2,2013-01-28 18:08:00,
2013-01-28 10:13:00,39.6,37.4,30.07,SSW,213,0.0,1.0,92,0.00,,,0.01,WUHU216DAVISVP2,2013-01-28 18:13:00,
2013-01-28 10:18:00,39.7,37.2,30.07,NE,41,2.0,3.0,91,0.00,,,0.01,WUHU216DAVISVP2,2013-01-28 18:18:00,
2013-01-28 10:23:00,39.7,37.2,30.07,SW,233,4.0,5.0,91,0.00,,,0.01,WUHU216DAVISVP2,2013-01-28 18:23:00,
2013-01-28 10:28:00,39.9,37.2,30.07,West,271,6.0,6.0,90,0.00,,,0.01,WUHU216DAVISVP2,2013-01-28 18:28:00,
2013-01-28 10:33:00,40.0,37.3,30.07,SSW,210,2.0,7.0,90,0.00,,,0.01,WUHU216DAVISVP2,2013-01-28 18:33:00,
2013-01-28 10:38:00,40.1,37.4,30.08,WSW,246,0.0,10.0,90,0.00,,,0.01,WUHU216DAVISVP2,2013-01-28 18:38:00,
2013-01-28 10:43:00,40.1,37.6,30.08,SSW,211,2.0,10.0,91,0.00,,,0.01,WUHU216DAVISVP2,2013-01-28 18:43:00,
2013-01-28 10:48:00,40.0,37.5,30.08,SW,217,6.0,8.0,91,0.00,,,0.01,WUHU216DAVISVP2,2013-01-28 18:48:00,
2013-01-28 10:53:00,40.0,37.5,30.08,SW,227,3.0,8.0,91,0.00,,,0.01,WUHU216DAVISVP2,2013-01-28 18:53:00,
2013-01-28 10:58:00,39.9,37.8,30.09,WSW,242,3.0,8.0,92,0.00,,,0.01,WUHU216DAVISVP2,2013-01-28 18:58:00,
2013-01-28 11:03:00,39.8,37.4,30.09,West,261,1.0,7.0,91,0.00,,,0.01,WUHU216DAVISVP2,2013-01-28 19:03:00,
2013-01-28 11:08:00,39.7,37.3,30.09,SW,234,2.0,10.0,91,0.00,,,0.01,WUHU216DAVISVP2,2013-01-28 19:08:00,
2013-01-28 11:13:00,39.7,37.6,30.08,SW,229,2.0,10.0,92,0.00,,,0.01,WUHU216DAVISVP2,2013-01-28 19:13:00,
2013-01-28 11:18:00,39.7,37.8,30.08,WSW,253,1.0,7.0,93,0.00,,,0.01,WUHU216DAVISVP2,2013-01-28 19:18:00,
2013-01-28 11:23:00,39.7,37.8,30.08,SW,223,1.0,6.0,93,0.00,,,0.01,WUHU216DAVISVP2,2013-01-28 19:23:00,
2013-01-28 11:28:00,39.7,37.6,30.09,SW,235,1.0,6.0,92,0.00,,,0.01,WUHU216DAVISVP2,2013-01-28 19:28:00,
2013-01-28 11:33:00,39.7,37.8,30.09,SW,215,3.0,5.0,93,0.01,,,0.02,WUHU216DAVISVP2,2013-01-28 19:33:00,
2013-01-28 11:38:00,39.7,37.8,30.09,SW,227,3.0,5.0,93,0.01,,,0.02,WUHU216DAVISVP2,2013-01-28 19:38:00,
2013-01-28 11:43:00,39.7,37.6,30.08,WSW,238,1.0,5.0,92,0.01,,,0.02,WUHU216DAVISVP2,2013-01-28 19:43:00,
2013-01-28 11:48:00,39.7,37.8,30.08,SW,218,0.0,5.0,93,0.02,,,0.03,WUHU216DAVISVP2,2013-01-28 19:48:00,
2013-01-28 11:53:00,39.6,37.7,30.08,West,267,0.0,4.0,93,0.02,,,0.03,WUHU216DAVISVP2,2013-01-28 19:53:00,
2013-01-28 11:58:00,39.6,38.0,30.08,West,267,0.0,4.0,94,0.02,,,0.03,WUHU216DAVISVP2,2013-01-28 19:58:00,
2013-01-28 12:03:00,39.6,38.0,30.08,West,267,0.0,2.0,94,0.02,,,0.03,WUHU216DAVISVP2,2013-01-28 20:03:00,
2013-01-28 12:08:00,39.6,38.0,30.08,West,267,0.0,2.0,94,0.02,,,0.03,WUHU216DAVISVP2,2013-01-28 20:08:00,
2013-01-28 12:13:00,39.6,38.0,30.08,West,267,0.0,2.0,94,0.02,,,0.04,WUHU216DAVISVP2,2013-01-28 20:13:00,
2013-01-28 12:18:00,39.6,38.0,30.08,West,267,0.0,0.0,94,0.03,,,0.04,WUHU216DAVISVP2,2013-01-28 20:18:00,
2013-01-28 12:23:00,39.7,38.1,30.08,West,267,0.0,0.0,94,0.03,,,0.04,WUHU216DAVISVP2,2013-01-28 20:23:00,
2013-01-28 12:28:00,39.6,38.0,30.08,West,267,0.0,1.0,94,0.04,,,0.05,WUHU216DAVISVP2,2013-01-28 20:28:00,
2013-01-28 12:33:00,39.6,38.0,30.08,West,267,0.0,2.0,94,0.03,,,0.05,WUHU216DAVISVP2,2013-01-28 20:33:00,
2013-01-28 12:38:00,39.6,38.0,30.08,West,267,0.0,2.0,94,0.04,,,0.06,WUHU216DAVISVP2,2013-01-28 20:38:00,
2013-01-28 12:43:00,39.6,38.0,30.08,SSW,205,1.0,2.0,94,0.05,,,0.07,WUHU216DAVISVP2,2013-01-28 20:43:00,
2013-01-28 12:48:00,39.6,38.0,30.08,SSW,205,1.0,2.0,94,0.04,,,0.07,WUHU216DAVISVP2,2013-01-28 20:48:00,
2013-01-28 12:53:00,39.5,37.9,30.08,SW,215,1.0,2.0,94,0.05,,,0.08,WUHU216DAVISVP2,2013-01-28 20:53:00,
2013-01-28 12:58:00,39.4,37.8,30.07,SW,233,0.0,6.0,94,0.06,,,0.09,WUHU216DAVISVP2,2013-01-28 20:58:00,
2013-01-28 13:03:00,39.3,37.7,30.07,WNW,287,1.0,6.0,94,0.06,,,0.09,WUHU216DAVISVP2,2013-01-28 21:03:00,
2013-01-28 13:08:00,39.2,37.6,30.07,SW,223,0.0,4.0,94,0.07,,,0.10,WUHU216DAVISVP2,2013-01-28 21:08:00,
2013-01-28 13:13:00,39.1,37.5,30.07,SW,215,0.0,3.0,94,0.08,,,0.11,WUHU216DAVISVP2,2013-01-28 21:13:00,
2013-01-28 13:18:00,39.0,37.4,30.07,SSW,208,4.0,4.0,94,0.07,,,0.11,WUHU216DAVISVP2,2013-01-28 21:18:00,
2013-01-28 13:23:00,38.8,36.9,30.07,SSW,207,2.0,5.0,93,0.08,,,0.12,WUHU216DAVISVP2,2013-01-28 21:23:00,
2013-01-28 13:28:00,38.7,36.8,30.07,SW,217,1.0,5.0,93,0.08,,,0.13,WUHU216DAVISVP2,2013-01-28 21:28:00,
2013-01-28 13:33:00,38.6,37.0,30.07,SSW,213,0.0,3.0,94,0.08,,,0.13,WUHU216DAVISVP2,2013-01-28 21:33:00,
2013-01-28 13:38:00,38.6,37.0,30.07,SSW,213,0.0,2.0,94,0.08,,,0.14,WUHU216DAVISVP2,2013-01-28 21:38:00,
2013-01-28 13:43:00,38.5,37.1,30.07,SSW,207,0.0,1.0,95,0.08,,,0.15,WUHU216DAVISVP2,2013-01-28 21:43:00,
2013-01-28 13:48:00,38.4,36.8,30.07,NE,53,2.0,2.0,94,0.08,,,0.15,WUHU216DAVISVP2,2013-01-28 21:48:00,
2013-01-28 13:53:00,38.0,36.4,30.06,ENE,63,0.0,4.0,94,0.08,,,0.16,WUHU216DAVISVP2,2013-01-28 21:53:00,
2013-01-28 13:58:00,37.5,35.9,30.06,ENE,61,0.0,4.0,94,0.08,,,0.17,WUHU216DAVISVP2,2013-01-28 21:58:00,
2013-01-28 14:03:00,37.1,35.5,30.07,NE,47,0.0,3.0,94,0.07,,,0.17,WUHU216DAVISVP2,2013-01-28 22:03:00,
2013-01-28 14:08:00,36.9,35.3,30.07,ENE,63,0.0,3.0,94,0.08,,,0.18,WUHU216DAVISVP2,2013-01-28 22:08:00,
2013-01-28 14:13:00,36.7,35.4,30.07,ENE,75,2.0,3.0,95,0.07,,,0.18,WUHU216DAVISVP2,2013-01-28 22:13:00,
2013-01-28 14:18:00,36.5,35.2,30.07,ENE,65,1.0,3.0,95,0.08,,,0.19,WUHU216DAVISVP2,2013-01-28 22:18:00,
2013-01-28 14:23:00,36.4,35.1,30.07,East,80,1.0,4.0,95,0.08,,,0.20,WUHU216DAVISVP2,2013-01-28 22:23:00,
2013-01-28 14:28:00,36.4,35.1,30.07,East,80,0.0,4.0,95,0.07,,,0.20,WUHU216DAVISVP2,2013-01-28 22:28:00,
2013-01-28 14:33:00,36.4,35.1,30.07,East,80,1.0,3.0,95,0.08,,,0.21,WUHU216DAVISVP2,2013-01-28 22:33:00,
2013-01-28 14:38:00,36.3,35.0,30.07,ENE,70,0.0,3.0,95,0.08,,,0.22,WUHU216DAVISVP2,2013-01-28 22:38:00,
2013-01-28 14:43:00,36.3,35.2,30.07,ENE,78,0.0,3.0,96,0.08,,,0.23,WUHU216DAVISVP2,2013-01-28 22:43:00,
2013-01-28 14:48:00,36.3,35.2,30.07,ENE,67,1.0,3.0,96,0.08,,,0.23,WUHU216DAVISVP2,2013-01-28 22:48:00,
2013-01-28 14:53:00,36.3,35.0,30.06,ENE,71,2.0,3.0,95,0.08,,,0.24,WUHU216DAVISVP2,2013-01-28 22:53:00,
2013-01-28 14:58:00,36.2,34.9,30.06,ENE,74,1.0,3.0,95,0.08,,,0.25,WUHU216DAVISVP2,2013-01-28 22:58:00,
2013-01-28 15:03:00,36.2,35.1,30.06,ENE,61,0.0,3.0,96,0.08,,,0.25,WUHU216DAVISVP2,2013-01-28 23:03:00,
2013-01-28 15:08:00,36.2,35.1,30.06,ENE,69,1.0,2.0,96,0.08,,,0.26,WUHU216DAVISVP2,2013-01-28 23:08:00,
2013-01-28 15:13:00,36.1,34.8,30.06,ENE,66,0.0,3.0,95,0.08,,,0.26,WUHU216DAVISVP2,2013-01-28 23:13:00,
2013-01-28 15:18:00,36.1,35.0,30.07,ENE,68,0.0,4.0,96,0.08,,,0.27,WUHU216DAVISVP2,2013-01-28 23:18:00,
2013-01-28 15:23:00,36.2,35.1,30.07,ENE,68,0.0,4.0,96,0.07,,,0.27,WUHU216DAVISVP2,2013-01-28 23:23:00,
2013-01-28 15:28:00,36.2,35.1,30.06,ENE,68,1.0,3.0,96,0.08,,,0.28,WUHU216DAVISVP2,2013-01-28 23:28:00,
2013-01-28 15:33:00,36.2,35.1,30.06,ENE,65,3.0,3.0,96,0.07,,,0.28,WUHU216DAVISVP2,2013-01-28 23:33:00,
2013-01-28 15:38:00,36.2,35.1,30.06,ENE,65,2.0,5.0,96,0.07,,,0.29,WUHU216DAVISVP2,2013-01-28 23:38:00,
2013-01-28 15:43:00,36.2,34.9,30.07,ENE,75,3.0,5.0,95,0.06,,,0.29,WUHU216DAVISVP2,2013-01-28 23:43:00,
2013-01-28 15:48:00,36.3,35.2,30.07,ENE,76,1.0,4.0,96,0.07,,,0.30,WUHU216DAVISVP2,2013-01-28 23:48:00,
2013-01-28 15:53:00,36.4,35.4,30.07,SE,131,0.0,4.0,96,0.07,,,0.31,WUHU216DAVISVP2,2013-01-28 23:53:00,
2013-01-28 15:58:00,36.5,35.5,30.07,SE,131,0.0,3.0,96,0.07,,,0.32,WUHU216DAVISVP2,2013-01-28 23:58:00,
2013-01-28 16:03:00,36.5,35.5,30.07,ENE,57,0.0,2.0,96,0.07,,,0.32,WUHU216DAVISVP2,2013-01-29 00:03:00,
2013-01-28 16:08:00,36.5,35.5,30.07,ENE,61,0.0,2.0,96,0.07,,,0.33,WUHU216DAVISVP2,2013-01-29 00:08:00,
2013-01-28 16:13:00,36.5,35.5,30.07,ENE,69,0.0,2.0,96,0.07,,,0.34,WUHU216DAVISVP2,2013-01-29 00:13:00,
2013-01-28 16:18:00,36.6,35.6,30.07,ESE,113,0.0,2.0,96,0.08,,,0.35,WUHU216DAVISVP2,2013-01-29 00:18:00,
2013-01-28 16:23:00,36.6,35.6,30.07,ENE,76,2.0,2.0,96,0.08,,,0.35,WUHU216DAVISVP2,2013-01-29 00:23:00,
2013-01-28 16:28:00,36.8,35.8,30.07,South,188,0.0,3.0,96,0.08,,,0.36,WUHU216DAVISVP2,2013-01-29 00:28:00,
2013-01-28 16:33:00,37.1,36.3,30.06,ESE,122,0.0,3.0,97,0.09,,,0.37,WUHU216DAVISVP2,2013-01-29 00:33:00,
2013-01-28 16:38:00,37.3,36.5,30.07,ESE,122,0.0,1.0,97,0.09,,,0.38,WUHU216DAVISVP2,2013-01-29 00:38:00,
2013-01-28 16:43:00,37.5,36.7,30.07,SE,138,0.0,1.0,97,0.10,,,0.39,WUHU216DAVISVP2,2013-01-29 00:43:00,
2013-01-28 16:48:00,37.5,36.7,30.07,East,90,1.0,1.0,97,0.09,,,0.39,WUHU216DAVISVP2,2013-01-29 00:48:00,
2013-01-28 16:53:00,37.5,36.7,30.07,SW,223,2.0,3.0,97,0.09,,,0.40,WUHU216DAVISVP2,2013-01-29 00:53:00,
2013-01-28 16:58:00,37.6,36.8,30.07,SW,214,1.0,5.0,97,0.09,,,0.41,WUHU216DAVISVP2,2013-01-29 00:58:00,
2013-01-28 17:03:00,37.7,36.9,30.07,SSE,153,0.0,5.0,97,0.10,,,0.42,WUHU216DAVISVP2,2013-01-29 01:03:00,
2013-01-28 17:08:00,37.6,36.8,30.07,SSE,153,0.0,2.0,97,0.10,,,0.43,WUHU216DAVISVP2,2013-01-29 01:08:00,
2013-01-28 17:13:00,37.6,36.8,30.07,ENE,72,0.0,2.0,97,0.09,,,0.43,WUHU216DAVISVP2,2013-01-29 01:13:00,
2013-01-28 17:18:00,37.5,36.4,30.07,ENE,72,2.0,2.0,96,0.09,,,0.44,WUHU216DAVISVP2,2013-01-29 01:18:00,
2013-01-28 17:23:00,37.5,36.4,30.07,SSE,163,0.0,2.0,96,0.10,,,0.45,WUHU216DAVISVP2,2013-01-29 01:23:00,
2013-01-28 17:28:00,37.5,36.4,30.07,SW,216,0.0,5.0,96,0.09,,,0.45,WUHU216DAVISVP2,2013-01-29 01:28:00,
2013-01-28 17:33:00,37.5,36.4,30.07,SSE,148,1.0,5.0,96,0.08,,,0.45,WUHU216DAVISVP2,2013-01-29 01:33:00,
2013-01-28 17:38:00,37.5,36.4,30.07,SE,136,0.0,2.0,96,0.08,,,0.46,WUHU216DAVISVP2,2013-01-29 01:38:00,
2013-01-28 17:43:00,37.4,36.3,30.07,East,94,0.0,3.0,96,0.08,,,0.47,WUHU216DAVISVP2,2013-01-29 01:43:00,
2013-01-28 17:48:00,37.4,36.3,30.07,SE,138,1.0,3.0,96,0.08,,,0.47,WUHU216DAVISVP2,2013-01-29 01:48:00,
2013-01-28 17:53:00,37.4,36.3,30.07,East,99,0.0,3.0,96,0.08,,,0.48,WUHU216DAVISVP2,2013-01-29 01:53:00,
2013-01-28 17:58:00,37.3,36.2,30.08,East,99,0.0,3.0,96,0.08,,,0.49,WUHU216DAVISVP2,2013-01-29 01:58:00,
2013-01-28 18:03:00,37.3,36.2,30.08,East,99,0.0,1.0,96,0.08,,,0.50,WUHU216DAVISVP2,2013-01-29 02:03:00,
2013-01-28 18:08:00,37.1,36.0,30.08,ENE,78,2.0,3.0,96,0.08,,,0.51,WUHU216DAVISVP2,2013-01-29 02:08:00,
2013-01-28 18:13:00,37.1,36.0,30.09,SW,216,0.0,3.0,96,0.09,,,0.52,WUHU216DAVISVP2,2013-01-29 02:13:00,
2013-01-28 18:18:00,37.0,35.9,30.08,SSW,211,0.0,2.0,96,0.09,,,0.53,WUHU216DAVISVP2,2013-01-29 02:18:00,
2013-01-28 18:23:00,37.1,36.0,30.08,SW,217,2.0,4.0,96,0.08,,,0.54,WUHU216DAVISVP2,2013-01-29 02:23:00,
2013-01-28 18:28:00,37.4,36.3,30.09,SW,223,0.0,6.0,96,0.09,,,0.54,WUHU216DAVISVP2,2013-01-29 02:28:00,
2013-01-28 18:33:00,37.4,36.3,30.08,SSW,212,0.0,6.0,96,0.10,,,0.55,WUHU216DAVISVP2,2013-01-29 02:33:00,
2013-01-28 18:38:00,37.4,36.3,30.08,SSW,200,0.0,3.0,96,0.09,,,0.55,WUHU216DAVISVP2,2013-01-29 02:38:00,
2013-01-28 18:43:00,37.3,36.2,30.08,SE,133,0.0,2.0,96,0.09,,,0.56,WUHU216DAVISVP2,2013-01-29 02:43:00,
2013-01-28 18:48:00,37.3,36.2,30.08,WSW,238,0.0,2.0,96,0.10,,,0.57,WUHU216DAVISVP2,2013-01-29 02:48:00,
2013-01-28 18:53:00,37.3,36.2,30.08,SSW,211,0.0,2.0,96,0.09,,,0.57,WUHU216DAVISVP2,2013-01-29 02:53:00,
2013-01-28 18:58:00,37.3,36.2,30.08,ESE,117,2.0,2.0,96,0.08,,,0.57,WUHU216DAVISVP2,2013-01-29 02:58:00,
2013-01-28 19:03:00,37.2,36.1,30.08,South,188,0.0,3.0,96,0.08,,,0.58,WUHU216DAVISVP2,2013-01-29 03:03:00,
2013-01-28 19:08:00,37.3,36.2,30.08,SSW,212,1.0,7.0,96,0.07,,,0.58,WUHU216DAVISVP2,2013-01-29 03:08:00,
2013-01-28 19:13:00,37.4,36.3,30.08,SW,232,0.0,9.0,96,0.06,,,0.58,WUHU216DAVISVP2,2013-01-29 03:13:00,
2013-01-28 19:18:00,37.5,36.4,30.08,SW,218,3.0,9.0,96,0.05,,,0.58,WUHU216DAVISVP2,2013-01-29 03:18:00,
2013-01-28 19:23:00,37.9,36.8,30.08,SW,230,3.0,12.0,96,0.05,,,0.59,WUHU216DAVISVP2,2013-01-29 03:23:00,
2013-01-28 19:28:00,38.2,36.9,30.08,SW,231,2.0,12.0,95,0.05,,,0.59,WUHU216DAVISVP2,2013-01-29 03:28:00,
2013-01-28 19:33:00,38.4,37.1,30.08,WSW,241,7.0,10.0,95,0.05,,,0.60,WUHU216DAVISVP2,2013-01-29 03:33:00,
2013-01-28 19:38:00,38.5,36.9,30.07,South,183,2.0,10.0,94,0.05,,,0.60,WUHU216DAVISVP2,2013-01-29 03:38:00,
2013-01-28 19:43:00,38.5,36.9,30.08,SW,224,5.0,14.0,94,0.04,,,0.60,WUHU216DAVISVP2,2013-01-29 03:43:00,
2013-01-28 19:48:00,38.5,36.9,30.08,SSW,198,1.0,14.0,94,0.04,,,0.61,WUHU216DAVISVP2,2013-01-29 03:48:00,
2013-01-28 19:53:00,38.5,36.9,30.08,ESE,117,3.0,5.0,94,0.04,,,0.61,WUHU216DAVISVP2,2013-01-29 03:53:00,
2013-01-28 19:58:00,38.4,36.8,30.08,SSW,202,5.0,12.0,94,0.04,,,0.61,WUHU216DAVISVP2,2013-01-29 03:58:00,
2013-01-28 20:03:00,38.6,37.0,30.08,SSW,213,5.0,12.0,94,0.03,,,0.61,WUHU216DAVISVP2,2013-01-29 04:03:00,
2013-01-28 20:08:00,38.7,37.1,30.07,SW,218,7.0,9.0,94,0.04,,,0.62,WUHU216DAVISVP2,2013-01-29 04:08:00,
2013-01-28 20:13:00,38.8,36.9,30.07,SW,236,3.0,9.0,93,0.04,,,0.62,WUHU216DAVISVP2,2013-01-29 04:13:00,
2013-01-28 20:18:00,38.9,37.3,30.08,SW,228,4.0,9.0,94,0.04,,,0.62,WUHU216DAVISVP2,2013-01-29 04:18:00,
2013-01-28 20:23:00,38.9,37.0,30.08,SSW,202,2.0,9.0,93,0.03,,,0.62,WUHU216DAVISVP2,2013-01-29 04:23:00,
2013-01-28 20:28:00,39.0,37.1,30.07,South,178,2.0,14.0,93,0.03,,,0.62,WUHU216DAVISVP2,2013-01-29 04:28:00,
2013-01-28 20:33:00,39.1,37.2,30.07,SW,231,6.0,14.0,93,0.02,,,0.62,WUHU216DAVISVP2,2013-01-29 04:33:00,
2013-01-28 20:38:00,39.2,37.3,30.08,SSW,210,4.0,10.0,93,0.03,,,0.63,WUHU216DAVISVP2,2013-01-29 04:38:00,
2013-01-28 20:43:00,39.3,37.4,30.08,SW,216,4.0,10.0,93,0.03,,,0.63,WUHU216DAVISVP2,2013-01-29 04:43:00,
2013-01-28 20:48:00,39.3,37.4,30.07,SW,223,3.0,10.0,93,0.02,,,0.63,WUHU216DAVISVP2,2013-01-29 04:48:00,
2013-01-28 20:53:00,39.2,37.3,30.07,SSE,165,5.0,7.0,93,0.02,,,0.63,WUHU216DAVISVP2,2013-01-29 04:53:00,
2013-01-28 20:58:00,39.2,37.3,30.08,SW,232,4.0,7.0,93,0.02,,,0.63,WUHU216DAVISVP2,2013-01-29 04:58:00,
2013-01-28 21:00:00,39.2,37.3,30.08,South,183,2.0,7.0,93,0.02,,,0.63,WUHU216DAVISVP2,2013-01-29 05:00:00,
2013-01-28 21:01:00,39.2,37.3,30.08,SSW,205,3.0,7.0,93,0.02,,,0.63,WUHU216DAVISVP2,2013-01-29 05:01:00,
2013-01-28 21:03:00,39.1,37.2,30.08,SW,216,0.0,5.0,93,0.02,,,0.63,WUHU216DAVISVP2,2013-01-29 05:03:00,
2013-01-28 21:08:00,39.1,37.5,30.08,WSW,242,3.0,7.0,94,0.01,,,0.64,WUHU216DAVISVP2,2013-01-29 05:08:00,
2013-01-28 21:13:00,39.2,37.6,30.08,South,184,1.0,7.0,94,0.02,,,0.64,WUHU216DAVISVP2,2013-01-29 05:13:00,
2013-01-28 21:18:00,39.2,37.6,30.08,SW,231,2.0,9.0,94,0.02,,,0.64,WUHU216DAVISVP2,2013-01-29 05:18:00,
2013-01-28 21:23:00,39.4,37.5,30.08,SW,232,4.0,13.0,93,0.02,,,0.64,WUHU216DAVISVP2,2013-01-29 05:23:00,
2013-01-28 21:28:00,39.6,38.0,30.08,SW,228,2.0,13.0,94,0.03,,,0.65,WUHU216DAVISVP2,2013-01-29 05:28:00,
2013-01-28 21:33:00,39.5,37.9,30.08,SW,226,3.0,7.0,94,0.03,,,0.65,WUHU216DAVISVP2,2013-01-29 05:33:00,
2013-01-28 21:38:00,39.6,37.7,30.08,South,169,2.0,10.0,93,0.02,,,0.65,WUHU216DAVISVP2,2013-01-29 05:38:00,
2013-01-28 21:43:00,39.6,38.0,30.08,SSW,196,5.0,10.0,94,0.02,,,0.65,WUHU216DAVISVP2,2013-01-29 05:43:00,
2013-01-28 21:48:00,39.6,38.0,30.08,WSW,240,3.0,7.0,94,0.02,,,0.65,WUHU216DAVISVP2,2013-01-29 05:48:00,
2013-01-28 21:53:00,39.7,37.8,30.08,SSW,203,2.0,12.0,93,0.02,,,0.65,WUHU216DAVISVP2,2013-01-29 05:53:00,
2013-01-28 21:58:00,39.8,37.9,30.08,SSW,203,6.0,12.0,93,0.02,,,0.65,WUHU216DAVISVP2,2013-01-29 05:58:00,
2013-01-28 22:03:00,39.8,37.9,30.08,WSW,250,3.0,12.0,93,0.02,,,0.65,WUHU216DAVISVP2,2013-01-29 06:03:00,
2013-01-28 22:08:00,40.0,38.1,30.08,WSW,240,4.0,13.0,93,0.01,,,0.65,WUHU216DAVISVP2,2013-01-29 06:08:00,
2013-01-28 22:13:00,40.0,38.1,30.08,SW,229,5.0,13.0,93,0.02,,,0.66,WUHU216DAVISVP2,2013-01-29 06:13:00,
2013-01-28 22:18:00,40.0,38.1,30.08,South,186,1.0,9.0,93,0.02,,,0.66,WUHU216DAVISVP2,2013-01-29 06:18:00,
2013-01-28 22:23:00,39.9,38.0,30.09,West,269,1.0,7.0,93,0.02,,,0.66,WUHU216DAVISVP2,2013-01-29 06:23:00,
2013-01-28 22:28:00,39.9,38.0,30.09,South,177,1.0,4.0,93,0.01,,,0.66,WUHU216DAVISVP2,2013-01-29 06:28:00,
2013-01-28 22:33:00,39.9,38.0,30.09,SW,220,3.0,4.0,93,0.01,,,0.66,WUHU216DAVISVP2,2013-01-29 06:33:00,
2013-01-28 22:38:00,39.9,38.0,30.09,WSW,237,0.0,4.0,93,0.01,,,0.66,WUHU216DAVISVP2,2013-01-29 06:38:00,
2013-01-28 22:43:00,39.8,38.2,30.09,SW,232,0.0,2.0,94,0.01,,,0.66,WUHU216DAVISVP2,2013-01-29 06:43:00,
2013-01-28 22:48:00,39.8,38.2,30.09,SW,232,4.0,7.0,94,0.01,,,0.66,WUHU216DAVISVP2,2013-01-29 06:48:00,
2013-01-28 22:53:00,40.0,38.1,30.09,SW,222,5.0,7.0,93,0.01,,,0.66,WUHU216DAVISVP2,2013-01-29 06:53:00,
2013-01-28 22:58:00,40.1,38.2,30.10,SW,226,1.0,7.0,93,0.01,,,0.66,WUHU216DAVISVP2,2013-01-29 06:58:00,
2013-01-28 23:03:00,40.1,38.2,30.10,SSW,209,7.0,8.0,93,0.01,,,0.66,WUHU216DAVISVP2,2013-01-29 07:03:00,
2013-01-28 23:08:00,40.2,38.1,30.10,SW,223,1.0,12.0,92,0.01,,,0.66,WUHU216DAVISVP2,2013-01-29 07:08:00,
2013-01-28 23:13:00,40.3,38.2,30.11,SW,221,0.0,12.0,92,0.00,,,0.66,WUHU216DAVISVP2,2013-01-29 07:13:00,
2013-01-28 23:18:00,40.3,38.4,30.11,SSW,192,1.0,9.0,93,0.00,,,0.66,WUHU216DAVISVP2,2013-01-29 07:18:00,
2013-01-28 23:23:00,40.2,38.3,30.11,SW,223,1.0,4.0,93,0.01,,,0.67,WUHU216DAVISVP2,2013-01-29 07:23:00,
2013-01-28 23:28:00,40.2,38.3,30.11,SSW,201,0.0,4.0,93,0.01,,,0.67,WUHU216DAVISVP2,2013-01-29 07:28:00,
2013-01-28 23:33:00,40.2,38.6,30.11,WSW,248,0.0,3.0,94,0.01,,,0.67,WUHU216DAVISVP2,2013-01-29 07:33:00,
2013-01-28 23:38:00,40.2,38.6,30.11,WSW,248,0.0,3.0,94,0.01,,,0.67,WUHU216DAVISVP2,2013-01-29 07:38:00,
2013-01-28 23:43:00,40.1,38.5,30.11,SSE,162,0.0,3.0,94,0.01,,,0.67,WUHU216DAVISVP2,2013-01-29 07:43:00,
2013-01-28 23:48:00,40.2,38.6,30.11,SSW,211,0.0,3.0,94,0.01,,,0.67,WUHU216DAVISVP2,2013-01-29 07:48:00,
2013-01-28 23:53:00,40.2,38.6,30.11,SSW,211,0.0,3.0,94,0.01,,,0.67,WUHU216DAVISVP2,2013-01-29 07:53:00,
2013-01-28 23:58:00,40.2,38.8,30.11,North,11,0.0,2.0,95,0.01,,,0.67,WUHU216DAVISVP2,2013-01-29 07:58:00,